SFC Newsletters

Refer to "Latest Club News" on the home page

Home The Club The Windsock Newsletter

Latest Metar/Taf

[source: ADDS]
METAR
FACT 182200Z 16021KT CAVOK 18/10 Q1021 NOSIG =
TAF
TAF FACT 182200Z 1900/2006 16017KT 9999 FEW030 BECMG 1910/1912 18026KT BECMG 1916/1918 16016KT FM200000 15010KT CAVOK TX26/1912Z TN16/1904Z =
SR / SS: 03:29 / 17:54 UTC (FASH 2017-12-19)

Quicklinks

Club Events Calendar
FASH Weather 7-Day Forecast